sensor_id;sensor_type;location;lat;lon;timestamp;P1;durP1;ratioP1;P2;durP2;ratioP2
79330;SDS011;68797;49.782;19.054;2023-11-21T00:00:38;4.75;;;2.97;;
79330;SDS011;68797;49.782;19.054;2023-11-21T00:03:26;5.30;;;2.83;;
79330;SDS011;68797;49.782;19.054;2023-11-21T00:05:54;7.88;;;4.50;;
79330;SDS011;68797;49.782;19.054;2023-11-21T00:08:21;4.55;;;2.95;;
79330;SDS011;68797;49.782;19.054;2023-11-21T00:10:49;6.82;;;3.53;;
79330;SDS011;68797;49.782;19.054;2023-11-21T00:13:17;9.13;;;4.22;;
79330;SDS011;68797;49.782;19.054;2023-11-21T00:15:44;4.75;;;2.88;;
79330;SDS011;68797;49.782;19.054;2023-11-21T00:18:11;5.32;;;3.45;;
79330;SDS011;68797;49.782;19.054;2023-11-21T00:20:38;5.75;;;3.03;;
79330;SDS011;68797;49.782;19.054;2023-11-21T00:23:07;6.00;;;3.88;;
79330;SDS011;68797;49.782;19.054;2023-11-21T00:25:36;6.78;;;3.15;;
79330;SDS011;68797;49.782;19.054;2023-11-21T00:28:03;4.18;;;2.72;;
79330;SDS011;68797;49.782;19.054;2023-11-21T00:30:30;7.07;;;3.75;;
79330;SDS011;68797;49.782;19.054;2023-11-21T00:32:58;4.55;;;2.53;;
79330;SDS011;68797;49.782;19.054;2023-11-21T00:35:25;7.45;;;3.20;;
79330;SDS011;68797;49.782;19.054;2023-11-21T00:37:52;4.35;;;2.80;;
79330;SDS011;68797;49.782;19.054;2023-11-21T00:40:20;6.82;;;3.28;;
79330;SDS011;68797;49.782;19.054;2023-11-21T00:42:48;5.90;;;3.60;;
79330;SDS011;68797;49.782;19.054;2023-11-21T00:45:16;5.40;;;2.92;;
79330;SDS011;68797;49.782;19.054;2023-11-21T00:47:43;5.57;;;2.60;;
79330;SDS011;68797;49.782;19.054;2023-11-21T00:50:11;4.80;;;2.80;;
79330;SDS011;68797;49.782;19.054;2023-11-21T00:52:39;6.90;;;3.22;;
79330;SDS011;68797;49.782;19.054;2023-11-21T00:55:06;3.72;;;2.47;;
79330;SDS011;68797;49.782;19.054;2023-11-21T00:57:35;5.15;;;3.08;;
79330;SDS011;68797;49.782;19.054;2023-11-21T01:00:03;5.90;;;3.85;;
79330;SDS011;68797;49.782;19.054;2023-11-21T01:02:40;4.60;;;2.83;;
79330;SDS011;68797;49.782;19.054;2023-11-21T01:05:07;7.30;;;4.35;;
79330;SDS011;68797;49.782;19.054;2023-11-21T01:07:34;4.72;;;2.47;;
79330;SDS011;68797;49.782;19.054;2023-11-21T01:10:01;4.97;;;2.80;;
79330;SDS011;68797;49.782;19.054;2023-11-21T01:12:29;5.90;;;2.92;;
79330;SDS011;68797;49.782;19.054;2023-11-21T01:14:58;7.00;;;2.72;;
79330;SDS011;68797;49.782;19.054;2023-11-21T01:17:28;8.73;;;2.53;;
79330;SDS011;68797;49.782;19.054;2023-11-21T01:19:54;13.93;;;4.97;;
79330;SDS011;68797;49.782;19.054;2023-11-21T01:22:22;38.67;;;13.38;;
79330;SDS011;68797;49.782;19.054;2023-11-21T01:24:53;17.73;;;6.97;;
79330;SDS011;68797;49.782;19.054;2023-11-21T01:27:25;5.63;;;2.92;;
79330;SDS011;68797;49.782;19.054;2023-11-21T01:29:53;29.83;;;9.60;;
79330;SDS011;68797;49.782;19.054;2023-11-21T01:32:20;21.52;;;7.78;;
79330;SDS011;68797;49.782;19.054;2023-11-21T01:37:18;6.75;;;2.70;;
79330;SDS011;68797;49.782;19.054;2023-11-21T01:39:45;9.25;;;3.47;;
79330;SDS011;68797;49.782;19.054;2023-11-21T01:42:13;20.50;;;9.13;;
79330;SDS011;68797;49.782;19.054;2023-11-21T01:44:40;11.05;;;5.10;;
79330;SDS011;68797;49.782;19.054;2023-11-21T01:47:07;10.80;;;3.75;;
79330;SDS011;68797;49.782;19.054;2023-11-21T01:49:35;3.55;;;2.28;;
79330;SDS011;68797;49.782;19.054;2023-11-21T01:52:03;5.10;;;2.95;;
79330;SDS011;68797;49.782;19.054;2023-11-21T01:54:30;6.82;;;2.80;;
79330;SDS011;68797;49.782;19.054;2023-11-21T01:56:59;7.25;;;3.45;;
79330;SDS011;68797;49.782;19.054;2023-11-21T01:59:38;9.90;;;4.15;;
79330;SDS011;68797;49.782;19.054;2023-11-21T02:02:17;3.30;;;2.47;;
79330;SDS011;68797;49.782;19.054;2023-11-21T02:04:45;4.95;;;2.78;;
79330;SDS011;68797;49.782;19.054;2023-11-21T02:07:13;6.72;;;3.88;;
79330;SDS011;68797;49.782;19.054;2023-11-21T02:09:40;4.45;;;2.83;;
79330;SDS011;68797;49.782;19.054;2023-11-21T02:12:10;5.63;;;3.25;;
79330;SDS011;68797;49.782;19.054;2023-11-21T02:14:39;8.05;;;4.32;;
79330;SDS011;68797;49.782;19.054;2023-11-21T02:17:06;5.93;;;2.90;;
79330;SDS011;68797;49.782;19.054;2023-11-21T02:19:33;4.30;;;2.38;;
79330;SDS011;68797;49.782;19.054;2023-11-21T02:22:00;4.20;;;2.70;;
79330;SDS011;68797;49.782;19.054;2023-11-21T02:24:31;5.15;;;3.00;;
79330;SDS011;68797;49.782;19.054;2023-11-21T02:26:58;6.28;;;3.35;;
79330;SDS011;68797;49.782;19.054;2023-11-21T02:29:26;5.35;;;3.20;;
79330;SDS011;68797;49.782;19.054;2023-11-21T02:31:55;4.15;;;2.47;;
79330;SDS011;68797;49.782;19.054;2023-11-21T02:34:22;6.40;;;2.47;;
79330;SDS011;68797;49.782;19.054;2023-11-21T02:36:49;3.28;;;2.53;;
79330;SDS011;68797;49.782;19.054;2023-11-21T02:39:16;4.97;;;2.50;;
79330;SDS011;68797;49.782;19.054;2023-11-21T02:41:44;7.70;;;4.30;;
79330;SDS011;68797;49.782;19.054;2023-11-21T02:44:11;5.70;;;3.10;;
79330;SDS011;68797;49.782;19.054;2023-11-21T02:46:38;4.32;;;3.00;;
79330;SDS011;68797;49.782;19.054;2023-11-21T02:49:06;7.97;;;3.05;;
79330;SDS011;68797;49.782;19.054;2023-11-21T02:56:30;5.22;;;3.15;;
79330;SDS011;68797;49.782;19.054;2023-11-21T02:58:59;4.35;;;2.55;;
79330;SDS011;68797;49.782;19.054;2023-11-21T03:01:26;8.98;;;2.90;;
79330;SDS011;68797;49.782;19.054;2023-11-21T03:03:53;4.13;;;2.55;;
79330;SDS011;68797;49.782;19.054;2023-11-21T03:06:22;7.25;;;3.22;;
79330;SDS011;68797;49.782;19.054;2023-11-21T03:08:49;6.85;;;3.22;;
79330;SDS011;68797;49.782;19.054;2023-11-21T03:11:19;6.43;;;2.90;;
79330;SDS011;68797;49.782;19.054;2023-11-21T03:13:45;5.82;;;2.72;;
79330;SDS011;68797;49.782;19.054;2023-11-21T03:16:14;3.75;;;2.38;;
79330;SDS011;68797;49.782;19.054;2023-11-21T03:18:41;7.93;;;3.17;;
79330;SDS011;68797;49.782;19.054;2023-11-21T03:21:13;4.85;;;3.38;;
79330;SDS011;68797;49.782;19.054;2023-11-21T03:23:40;11.63;;;4.78;;
79330;SDS011;68797;49.782;19.054;2023-11-21T03:26:13;10.88;;;4.25;;
79330;SDS011;68797;49.782;19.054;2023-11-21T03:28:40;6.85;;;3.88;;
79330;SDS011;68797;49.782;19.054;2023-11-21T03:31:09;7.38;;;3.88;;
79330;SDS011;68797;49.782;19.054;2023-11-21T03:33:37;15.60;;;5.20;;
79330;SDS011;68797;49.782;19.054;2023-11-21T03:36:04;6.15;;;3.17;;
79330;SDS011;68797;49.782;19.054;2023-11-21T03:38:31;5.80;;;3.38;;
79330;SDS011;68797;49.782;19.054;2023-11-21T03:40:59;4.50;;;2.67;;
79330;SDS011;68797;49.782;19.054;2023-11-21T03:43:28;8.82;;;3.20;;
79330;SDS011;68797;49.782;19.054;2023-11-21T03:45:55;6.30;;;3.47;;
79330;SDS011;68797;49.782;19.054;2023-11-21T03:48:23;4.53;;;2.70;;
79330;SDS011;68797;49.782;19.054;2023-11-21T03:50:50;5.25;;;3.25;;
79330;SDS011;68797;49.782;19.054;2023-11-21T03:53:19;4.80;;;2.70;;
79330;SDS011;68797;49.782;19.054;2023-11-21T03:55:46;4.93;;;3.30;;
79330;SDS011;68797;49.782;19.054;2023-11-21T03:58:13;7.38;;;3.03;;
79330;SDS011;68797;49.782;19.054;2023-11-21T04:00:40;3.90;;;2.60;;
79330;SDS011;68797;49.782;19.054;2023-11-21T04:03:07;6.25;;;4.10;;
79330;SDS011;68797;49.782;19.054;2023-11-21T04:12:54;6.90;;;3.53;;
79330;SDS011;68797;49.782;19.054;2023-11-21T04:15:21;8.55;;;3.85;;
79330;SDS011;68797;49.782;19.054;2023-11-21T04:17:48;10.10;;;4.82;;
79330;SDS011;68797;49.782;19.054;2023-11-21T04:22:43;7.47;;;3.78;;
79330;SDS011;68797;49.782;19.054;2023-11-21T04:25:15;7.18;;;3.67;;
79330;SDS011;68797;49.782;19.054;2023-11-21T04:27:42;8.50;;;4.13;;
79330;SDS011;68797;49.782;19.054;2023-11-21T04:30:15;5.88;;;2.92;;
79330;SDS011;68797;49.782;19.054;2023-11-21T04:32:41;6.60;;;3.70;;
79330;SDS011;68797;49.782;19.054;2023-11-21T04:35:08;15.05;;;5.00;;
79330;SDS011;68797;49.782;19.054;2023-11-21T04:37:36;20.75;;;8.20;;
79330;SDS011;68797;49.782;19.054;2023-11-21T04:40:10;5.35;;;3.25;;
79330;SDS011;68797;49.782;19.054;2023-11-21T04:42:36;21.63;;;10.48;;
79330;SDS011;68797;49.782;19.054;2023-11-21T04:45:04;24.27;;;11.57;;
79330;SDS011;68797;49.782;19.054;2023-11-21T04:47:35;14.25;;;7.35;;
79330;SDS011;68797;49.782;19.054;2023-11-21T04:50:03;6.65;;;3.95;;
79330;SDS011;68797;49.782;19.054;2023-11-21T04:52:31;4.07;;;2.53;;
79330;SDS011;68797;49.782;19.054;2023-11-21T04:54:59;6.68;;;3.35;;
79330;SDS011;68797;49.782;19.054;2023-11-21T04:57:27;6.60;;;3.20;;
79330;SDS011;68797;49.782;19.054;2023-11-21T04:59:56;4.80;;;2.70;;
79330;SDS011;68797;49.782;19.054;2023-11-21T05:02:23;4.70;;;2.53;;
79330;SDS011;68797;49.782;19.054;2023-11-21T05:04:50;10.55;;;3.95;;
79330;SDS011;68797;49.782;19.054;2023-11-21T05:07:17;7.88;;;3.65;;
79330;SDS011;68797;49.782;19.054;2023-11-21T05:09:45;10.48;;;4.20;;
79330;SDS011;68797;49.782;19.054;2023-11-21T05:12:14;6.82;;;3.40;;
79330;SDS011;68797;49.782;19.054;2023-11-21T05:14:41;10.43;;;4.32;;
79330;SDS011;68797;49.782;19.054;2023-11-21T05:17:10;8.50;;;3.35;;
79330;SDS011;68797;49.782;19.054;2023-11-21T05:19:38;6.05;;;3.17;;
79330;SDS011;68797;49.782;19.054;2023-11-21T05:22:06;7.97;;;3.92;;
79330;SDS011;68797;49.782;19.054;2023-11-21T05:24:36;8.27;;;3.72;;
79330;SDS011;68797;49.782;19.054;2023-11-21T05:27:05;5.93;;;2.90;;
79330;SDS011;68797;49.782;19.054;2023-11-21T05:29:32;6.60;;;3.25;;
79330;SDS011;68797;49.782;19.054;2023-11-21T05:32:00;6.30;;;3.20;;
79330;SDS011;68797;49.782;19.054;2023-11-21T05:34:32;7.18;;;3.80;;
79330;SDS011;68797;49.782;19.054;2023-11-21T05:37:00;7.53;;;3.63;;
79330;SDS011;68797;49.782;19.054;2023-11-21T05:39:27;7.57;;;3.40;;
79330;SDS011;68797;49.782;19.054;2023-11-21T05:41:53;5.00;;;3.08;;
79330;SDS011;68797;49.782;19.054;2023-11-21T05:44:31;6.63;;;3.65;;
79330;SDS011;68797;49.782;19.054;2023-11-21T05:46:59;9.57;;;5.00;;
79330;SDS011;68797;49.782;19.054;2023-11-21T05:49:25;4.05;;;2.85;;
79330;SDS011;68797;49.782;19.054;2023-11-21T05:51:54;8.82;;;3.88;;
79330;SDS011;68797;49.782;19.054;2023-11-21T05:54:24;5.45;;;3.20;;
79330;SDS011;68797;49.782;19.054;2023-11-21T05:56:52;5.60;;;3.38;;
79330;SDS011;68797;49.782;19.054;2023-11-21T05:59:20;4.63;;;3.05;;
79330;SDS011;68797;49.782;19.054;2023-11-21T06:01:47;4.45;;;2.92;;
79330;SDS011;68797;49.782;19.054;2023-11-21T06:04:50;5.78;;;2.85;;
79330;SDS011;68797;49.782;19.054;2023-11-21T06:07:18;5.10;;;2.85;;
79330;SDS011;68797;49.782;19.054;2023-11-21T06:09:48;3.55;;;2.33;;
79330;SDS011;68797;49.782;19.054;2023-11-21T06:12:16;5.85;;;2.80;;
79330;SDS011;68797;49.782;19.054;2023-11-21T06:14:47;3.53;;;2.15;;
79330;SDS011;68797;49.782;19.054;2023-11-21T06:17:15;3.70;;;2.30;;
79330;SDS011;68797;49.782;19.054;2023-11-21T06:22:09;4.18;;;2.33;;
79330;SDS011;68797;49.782;19.054;2023-11-21T06:24:40;4.28;;;2.90;;
79330;SDS011;68797;49.782;19.054;2023-11-21T06:27:16;5.00;;;2.83;;
79330;SDS011;68797;49.782;19.054;2023-11-21T06:29:43;6.80;;;3.03;;
79330;SDS011;68797;49.782;19.054;2023-11-21T06:34:37;4.57;;;2.83;;
79330;SDS011;68797;49.782;19.054;2023-11-21T06:37:04;8.25;;;3.08;;
79330;SDS011;68797;49.782;19.054;2023-11-21T06:39:31;5.28;;;3.10;;
79330;SDS011;68797;49.782;19.054;2023-11-21T06:41:59;4.85;;;2.90;;
79330;SDS011;68797;49.782;19.054;2023-11-21T06:44:26;5.63;;;2.97;;
79330;SDS011;68797;49.782;19.054;2023-11-21T06:46:55;6.60;;;3.25;;
79330;SDS011;68797;49.782;19.054;2023-11-21T06:49:22;5.28;;;2.53;;
79330;SDS011;68797;49.782;19.054;2023-11-21T06:51:50;6.45;;;2.95;;
79330;SDS011;68797;49.782;19.054;2023-11-21T06:54:17;6.22;;;2.97;;
79330;SDS011;68797;49.782;19.054;2023-11-21T06:56:50;6.38;;;2.90;;
79330;SDS011;68797;49.782;19.054;2023-11-21T06:59:19;3.92;;;2.45;;
79330;SDS011;68797;49.782;19.054;2023-11-21T07:01:48;4.97;;;3.30;;
79330;SDS011;68797;49.782;19.054;2023-11-21T07:04:18;5.18;;;2.67;;
79330;SDS011;68797;49.782;19.054;2023-11-21T07:06:45;4.97;;;2.80;;
79330;SDS011;68797;49.782;19.054;2023-11-21T07:09:14;6.32;;;3.10;;
79330;SDS011;68797;49.782;19.054;2023-11-21T07:11:42;5.57;;;2.90;;
79330;SDS011;68797;49.782;19.054;2023-11-21T07:14:09;5.95;;;3.55;;
79330;SDS011;68797;49.782;19.054;2023-11-21T07:16:36;4.60;;;3.05;;
79330;SDS011;68797;49.782;19.054;2023-11-21T07:19:05;6.85;;;3.85;;
79330;SDS011;68797;49.782;19.054;2023-11-21T07:21:34;5.00;;;3.17;;
79330;SDS011;68797;49.782;19.054;2023-11-21T07:26:29;6.72;;;2.92;;
79330;SDS011;68797;49.782;19.054;2023-11-21T07:28:56;5.97;;;3.15;;
79330;SDS011;68797;49.782;19.054;2023-11-21T07:31:34;4.93;;;2.95;;
79330;SDS011;68797;49.782;19.054;2023-11-21T07:34:00;5.50;;;3.13;;
79330;SDS011;68797;49.782;19.054;2023-11-21T07:36:26;6.10;;;3.50;;
79330;SDS011;68797;49.782;19.054;2023-11-21T07:38:53;8.82;;;3.05;;
79330;SDS011;68797;49.782;19.054;2023-11-21T07:41:20;6.68;;;2.80;;
79330;SDS011;68797;49.782;19.054;2023-11-21T07:43:46;5.03;;;3.05;;
79330;SDS011;68797;49.782;19.054;2023-11-21T07:46:13;4.50;;;2.80;;
79330;SDS011;68797;49.782;19.054;2023-11-21T07:48:40;8.60;;;3.22;;
79330;SDS011;68797;49.782;19.054;2023-11-21T07:51:08;6.93;;;3.03;;
79330;SDS011;68797;49.782;19.054;2023-11-21T07:53:35;8.25;;;3.15;;
79330;SDS011;68797;49.782;19.054;2023-11-21T07:56:06;4.50;;;2.70;;
79330;SDS011;68797;49.782;19.054;2023-11-21T07:58:34;6.13;;;2.85;;
79330;SDS011;68797;49.782;19.054;2023-11-21T08:01:01;4.38;;;2.63;;
79330;SDS011;68797;49.782;19.054;2023-11-21T08:03:29;7.68;;;2.67;;
79330;SDS011;68797;49.782;19.054;2023-11-21T08:05:57;4.45;;;2.83;;
79330;SDS011;68797;49.782;19.054;2023-11-21T08:08:24;6.78;;;2.33;;
79330;SDS011;68797;49.782;19.054;2023-11-21T08:10:51;4.65;;;2.80;;
79330;SDS011;68797;49.782;19.054;2023-11-21T08:13:24;7.93;;;3.20;;
79330;SDS011;68797;49.782;19.054;2023-11-21T08:15:55;5.78;;;3.20;;
79330;SDS011;68797;49.782;19.054;2023-11-21T08:18:29;10.98;;;3.40;;
79330;SDS011;68797;49.782;19.054;2023-11-21T08:20:55;5.75;;;2.92;;
79330;SDS011;68797;49.782;19.054;2023-11-21T08:23:22;7.30;;;4.10;;
79330;SDS011;68797;49.782;19.054;2023-11-21T08:25:52;13.10;;;5.85;;
79330;SDS011;68797;49.782;19.054;2023-11-21T08:28:19;10.52;;;4.28;;
79330;SDS011;68797;49.782;19.054;2023-11-21T08:30:52;5.00;;;2.78;;
79330;SDS011;68797;49.782;19.054;2023-11-21T08:33:19;5.68;;;2.85;;
79330;SDS011;68797;49.782;19.054;2023-11-21T08:35:46;3.95;;;2.45;;
79330;SDS011;68797;49.782;19.054;2023-11-21T08:38:12;4.55;;;2.17;;
79330;SDS011;68797;49.782;19.054;2023-11-21T08:40:39;5.05;;;2.50;;
79330;SDS011;68797;49.782;19.054;2023-11-21T08:43:05;4.03;;;2.42;;
79330;SDS011;68797;49.782;19.054;2023-11-21T08:48:09;4.50;;;2.72;;
79330;SDS011;68797;49.782;19.054;2023-11-21T08:50:37;4.32;;;2.70;;
79330;SDS011;68797;49.782;19.054;2023-11-21T08:53:04;7.47;;;3.20;;
79330;SDS011;68797;49.782;19.054;2023-11-21T08:55:31;7.40;;;3.38;;
79330;SDS011;68797;49.782;19.054;2023-11-21T08:58:02;5.53;;;2.53;;
79330;SDS011;68797;49.782;19.054;2023-11-21T09:00:31;7.35;;;2.28;;
79330;SDS011;68797;49.782;19.054;2023-11-21T09:02:58;4.43;;;2.40;;
79330;SDS011;68797;49.782;19.054;2023-11-21T09:05:26;3.75;;;2.60;;
79330;SDS011;68797;49.782;19.054;2023-11-21T09:07:53;4.22;;;2.50;;
79330;SDS011;68797;49.782;19.054;2023-11-21T09:10:19;5.38;;;2.53;;
79330;SDS011;68797;49.782;19.054;2023-11-21T09:12:46;3.92;;;2.33;;
79330;SDS011;68797;49.782;19.054;2023-11-21T09:15:12;6.20;;;3.20;;
79330;SDS011;68797;49.782;19.054;2023-11-21T09:17:40;4.10;;;2.13;;
79330;SDS011;68797;49.782;19.054;2023-11-21T09:20:07;3.72;;;2.40;;
79330;SDS011;68797;49.782;19.054;2023-11-21T09:22:35;5.68;;;2.55;;
79330;SDS011;68797;49.782;19.054;2023-11-21T09:25:02;6.22;;;2.92;;
79330;SDS011;68797;49.782;19.054;2023-11-21T09:27:31;4.13;;;2.70;;
79330;SDS011;68797;49.782;19.054;2023-11-21T09:29:57;5.30;;;2.95;;
79330;SDS011;68797;49.782;19.054;2023-11-21T09:32:24;6.18;;;3.10;;
79330;SDS011;68797;49.782;19.054;2023-11-21T09:34:50;4.43;;;2.42;;
79330;SDS011;68797;49.782;19.054;2023-11-21T09:37:16;4.65;;;2.53;;
79330;SDS011;68797;49.782;19.054;2023-11-21T09:39:43;4.20;;;2.63;;
79330;SDS011;68797;49.782;19.054;2023-11-21T09:42:12;5.05;;;2.92;;
79330;SDS011;68797;49.782;19.054;2023-11-21T09:44:45;6.70;;;3.08;;
79330;SDS011;68797;49.782;19.054;2023-11-21T09:47:17;8.50;;;3.20;;
79330;SDS011;68797;49.782;19.054;2023-11-21T09:49:49;8.23;;;3.50;;
79330;SDS011;68797;49.782;19.054;2023-11-21T09:52:19;4.47;;;3.33;;
79330;SDS011;68797;49.782;19.054;2023-11-21T09:54:52;6.35;;;3.20;;
79330;SDS011;68797;49.782;19.054;2023-11-21T09:57:19;10.43;;;3.75;;
79330;SDS011;68797;49.782;19.054;2023-11-21T09:59:53;7.72;;;3.83;;
79330;SDS011;68797;49.782;19.054;2023-11-21T10:02:22;6.75;;;3.03;;
79330;SDS011;68797;49.782;19.054;2023-11-21T10:04:52;8.13;;;3.83;;
79330;SDS011;68797;49.782;19.054;2023-11-21T10:07:20;7.93;;;3.40;;
79330;SDS011;68797;49.782;19.054;2023-11-21T10:09:47;4.93;;;3.25;;
79330;SDS011;68797;49.782;19.054;2023-11-21T10:12:16;8.20;;;3.42;;
79330;SDS011;68797;49.782;19.054;2023-11-21T10:14:43;7.78;;;3.67;;
79330;SDS011;68797;49.782;19.054;2023-11-21T10:17:14;7.00;;;3.88;;
79330;SDS011;68797;49.782;19.054;2023-11-21T10:19:42;7.38;;;3.60;;
79330;SDS011;68797;49.782;19.054;2023-11-21T10:22:09;6.55;;;3.60;;
79330;SDS011;68797;49.782;19.054;2023-11-21T10:24:35;7.05;;;3.33;;
79330;SDS011;68797;49.782;19.054;2023-11-21T10:27:04;7.97;;;3.50;;
79330;SDS011;68797;49.782;19.054;2023-11-21T10:29:30;4.80;;;2.80;;
79330;SDS011;68797;49.782;19.054;2023-11-21T10:31:56;8.65;;;3.67;;
79330;SDS011;68797;49.782;19.054;2023-11-21T10:34:24;6.55;;;2.85;;
79330;SDS011;68797;49.782;19.054;2023-11-21T10:36:53;6.20;;;3.92;;
79330;SDS011;68797;49.782;19.054;2023-11-21T10:39:19;5.80;;;3.40;;
79330;SDS011;68797;49.782;19.054;2023-11-21T10:41:49;5.78;;;3.10;;
79330;SDS011;68797;49.782;19.054;2023-11-21T10:44:17;6.68;;;3.33;;
79330;SDS011;68797;49.782;19.054;2023-11-21T10:46:52;6.47;;;2.92;;
79330;SDS011;68797;49.782;19.054;2023-11-21T10:49:22;7.07;;;3.20;;
79330;SDS011;68797;49.782;19.054;2023-11-21T10:51:50;8.75;;;3.00;;
79330;SDS011;68797;49.782;19.054;2023-11-21T10:54:19;9.02;;;3.38;;
79330;SDS011;68797;49.782;19.054;2023-11-21T10:56:47;7.50;;;3.60;;
79330;SDS011;68797;49.782;19.054;2023-11-21T10:59:17;8.23;;;4.10;;
79330;SDS011;68797;49.782;19.054;2023-11-21T11:01:44;8.73;;;4.07;;
79330;SDS011;68797;49.782;19.054;2023-11-21T11:04:11;7.30;;;3.70;;
79330;SDS011;68797;49.782;19.054;2023-11-21T11:06:53;11.00;;;4.03;;
79330;SDS011;68797;49.782;19.054;2023-11-21T11:09:22;8.00;;;3.38;;
79330;SDS011;68797;49.782;19.054;2023-11-21T11:11:48;8.75;;;3.75;;
79330;SDS011;68797;49.782;19.054;2023-11-21T11:14:17;9.30;;;4.75;;
79330;SDS011;68797;49.782;19.054;2023-11-21T11:16:45;8.43;;;4.28;;
79330;SDS011;68797;49.782;19.054;2023-11-21T11:19:12;11.20;;;4.20;;
79330;SDS011;68797;49.782;19.054;2023-11-21T11:27:52;6.75;;;4.82;;
79330;SDS011;68797;49.782;19.054;2023-11-21T11:38:31;10.88;;;5.22;;
79330;SDS011;68797;49.782;19.054;2023-11-21T11:41:05;10.85;;;5.13;;
79330;SDS011;68797;49.782;19.054;2023-11-21T11:43:32;7.07;;;3.95;;
79330;SDS011;68797;49.782;19.054;2023-11-21T11:46:03;10.13;;;3.75;;
79330;SDS011;68797;49.782;19.054;2023-11-21T11:48:29;8.15;;;4.05;;
79330;SDS011;68797;49.782;19.054;2023-11-21T11:51:05;5.60;;;3.30;;
79330;SDS011;68797;49.782;19.054;2023-11-21T11:53:43;7.95;;;4.28;;
79330;SDS011;68797;49.782;19.054;2023-11-21T11:56:30;7.03;;;3.55;;
79330;SDS011;68797;49.782;19.054;2023-11-21T11:59:00;8.75;;;4.07;;
79330;SDS011;68797;49.782;19.054;2023-11-21T12:01:30;8.77;;;4.50;;
79330;SDS011;68797;49.782;19.054;2023-11-21T12:04:40;9.15;;;4.28;;
79330;SDS011;68797;49.782;19.054;2023-11-21T12:06:52;6.65;;;3.53;;
79330;SDS011;68797;49.782;19.054;2023-11-21T12:09:19;11.40;;;4.00;;
79330;SDS011;68797;49.782;19.054;2023-11-21T12:11:51;7.13;;;4.10;;
79330;SDS011;68797;49.782;19.054;2023-11-21T12:14:18;8.77;;;4.50;;
79330;SDS011;68797;49.782;19.054;2023-11-21T12:16:45;7.38;;;3.95;;
79330;SDS011;68797;49.782;19.054;2023-11-21T12:19:11;10.82;;;5.25;;
79330;SDS011;68797;49.782;19.054;2023-11-21T12:21:38;9.63;;;4.63;;
79330;SDS011;68797;49.782;19.054;2023-11-21T12:24:08;9.13;;;4.75;;
79330;SDS011;68797;49.782;19.054;2023-11-21T12:26:40;6.55;;;4.22;;
79330;SDS011;68797;49.782;19.054;2023-11-21T12:29:06;9.43;;;5.18;;
79330;SDS011;68797;49.782;19.054;2023-11-21T12:31:34;14.88;;;5.07;;
79330;SDS011;68797;49.782;19.054;2023-11-21T12:34:01;8.98;;;5.05;;
79330;SDS011;68797;49.782;19.054;2023-11-21T12:36:28;9.63;;;5.00;;
79330;SDS011;68797;49.782;19.054;2023-11-21T12:38:56;9.55;;;4.63;;
79330;SDS011;68797;49.782;19.054;2023-11-21T12:41:22;10.40;;;4.85;;
79330;SDS011;68797;49.782;19.054;2023-11-21T12:43:48;9.15;;;4.38;;
79330;SDS011;68797;49.782;19.054;2023-11-21T12:46:15;12.23;;;4.32;;
79330;SDS011;68797;49.782;19.054;2023-11-21T12:48:43;9.93;;;4.32;;
79330;SDS011;68797;49.782;19.054;2023-11-21T12:51:10;11.30;;;5.25;;
79330;SDS011;68797;49.782;19.054;2023-11-21T12:53:37;9.70;;;4.70;;
79330;SDS011;68797;49.782;19.054;2023-11-21T12:56:10;11.77;;;5.10;;
79330;SDS011;68797;49.782;19.054;2023-11-21T13:01:06;10.30;;;4.75;;
79330;SDS011;68797;49.782;19.054;2023-11-21T13:03:37;7.35;;;3.88;;
79330;SDS011;68797;49.782;19.054;2023-11-21T13:06:06;8.43;;;4.03;;
79330;SDS011;68797;49.782;19.054;2023-11-21T13:11:00;8.35;;;3.88;;
79330;SDS011;68797;49.782;19.054;2023-11-21T13:13:29;6.07;;;3.63;;
79330;SDS011;68797;49.782;19.054;2023-11-21T13:15:56;8.10;;;4.70;;
79330;SDS011;68797;49.782;19.054;2023-11-21T13:18:31;8.13;;;4.68;;
79330;SDS011;68797;49.782;19.054;2023-11-21T13:20:58;10.38;;;4.57;;
79330;SDS011;68797;49.782;19.054;2023-11-21T13:23:26;8.07;;;4.72;;
79330;SDS011;68797;49.782;19.054;2023-11-21T13:30:47;8.65;;;3.60;;
79330;SDS011;68797;49.782;19.054;2023-11-21T13:33:14;8.77;;;3.45;;
79330;SDS011;68797;49.782;19.054;2023-11-21T13:35:53;7.88;;;3.15;;
79330;SDS011;68797;49.782;19.054;2023-11-21T13:38:21;5.85;;;3.63;;
79330;SDS011;68797;49.782;19.054;2023-11-21T13:40:52;12.68;;;3.72;;
79330;SDS011;68797;49.782;19.054;2023-11-21T13:43:20;7.18;;;3.53;;
79330;SDS011;68797;49.782;19.054;2023-11-21T13:45:51;6.03;;;3.45;;
79330;SDS011;68797;49.782;19.054;2023-11-21T13:48:26;6.88;;;3.50;;
79330;SDS011;68797;49.782;19.054;2023-11-21T13:53:50;9.02;;;4.90;;
79330;SDS011;68797;49.782;19.054;2023-11-21T13:56:22;9.80;;;5.50;;
79330;SDS011;68797;49.782;19.054;2023-11-21T13:58:50;10.75;;;5.43;;
79330;SDS011;68797;49.782;19.054;2023-11-21T14:01:18;10.57;;;6.20;;
79330;SDS011;68797;49.782;19.054;2023-11-21T14:04:06;10.95;;;6.03;;
79330;SDS011;68797;49.782;19.054;2023-11-21T14:06:49;11.90;;;6.20;;
79330;SDS011;68797;49.782;19.054;2023-11-21T14:09:21;11.60;;;5.70;;
79330;SDS011;68797;49.782;19.054;2023-11-21T14:11:49;11.50;;;5.75;;
79330;SDS011;68797;49.782;19.054;2023-11-21T14:14:24;10.75;;;5.78;;
79330;SDS011;68797;49.782;19.054;2023-11-21T14:16:52;11.43;;;6.53;;
79330;SDS011;68797;49.782;19.054;2023-11-21T14:19:19;10.52;;;6.13;;
79330;SDS011;68797;49.782;19.054;2023-11-21T14:21:46;14.10;;;7.68;;
79330;SDS011;68797;49.782;19.054;2023-11-21T14:24:14;15.65;;;7.22;;
79330;SDS011;68797;49.782;19.054;2023-11-21T14:26:45;14.90;;;7.95;;
79330;SDS011;68797;49.782;19.054;2023-11-21T14:29:13;15.68;;;7.57;;
79330;SDS011;68797;49.782;19.054;2023-11-21T14:31:46;19.13;;;8.73;;
79330;SDS011;68797;49.782;19.054;2023-11-21T14:34:12;15.05;;;7.93;;
79330;SDS011;68797;49.782;19.054;2023-11-21T14:36:41;12.80;;;6.55;;
79330;SDS011;68797;49.782;19.054;2023-11-21T14:39:11;12.23;;;7.05;;
79330;SDS011;68797;49.782;19.054;2023-11-21T14:41:50;11.30;;;6.47;;
79330;SDS011;68797;49.782;19.054;2023-11-21T14:44:17;14.27;;;7.70;;
79330;SDS011;68797;49.782;19.054;2023-11-21T14:46:46;15.57;;;7.82;;
79330;SDS011;68797;49.782;19.054;2023-11-21T14:49:17;13.80;;;8.32;;
79330;SDS011;68797;49.782;19.054;2023-11-21T14:51:51;11.55;;;7.25;;
79330;SDS011;68797;49.782;19.054;2023-11-21T14:54:49;13.65;;;7.68;;
79330;SDS011;68797;49.782;19.054;2023-11-21T14:57:27;13.77;;;7.20;;
79330;SDS011;68797;49.782;19.054;2023-11-21T14:59:55;16.90;;;9.15;;
79330;SDS011;68797;49.782;19.054;2023-11-21T15:02:28;17.08;;;8.93;;
79330;SDS011;68797;49.782;19.054;2023-11-21T15:05:13;18.25;;;8.80;;
79330;SDS011;68797;49.782;19.054;2023-11-21T15:07:44;16.92;;;8.13;;
79330;SDS011;68797;49.782;19.054;2023-11-21T15:10:14;18.67;;;8.52;;
79330;SDS011;68797;49.782;19.054;2023-11-21T15:12:43;20.30;;;9.77;;
79330;SDS011;68797;49.782;19.054;2023-11-21T15:15:10;16.05;;;8.93;;
79330;SDS011;68797;49.782;19.054;2023-11-21T15:17:38;19.88;;;8.20;;
79330;SDS011;68797;49.782;19.054;2023-11-21T15:20:08;15.95;;;7.90;;
79330;SDS011;68797;49.782;19.054;2023-11-21T15:22:36;16.27;;;8.27;;
79330;SDS011;68797;49.782;19.054;2023-11-21T15:25:03;15.68;;;8.18;;
79330;SDS011;68797;49.782;19.054;2023-11-21T15:27:37;15.65;;;7.93;;
79330;SDS011;68797;49.782;19.054;2023-11-21T15:30:04;21.02;;;9.02;;
79330;SDS011;68797;49.782;19.054;2023-11-21T15:32:32;25.92;;;10.75;;
79330;SDS011;68797;49.782;19.054;2023-11-21T15:34:59;16.42;;;8.65;;